Time;durP1;ratioP1;P1;durP2;ratioP2;P2;SDS_P1;SDS_P2;PMS_P1;PMS_P2;Temp;Humidity;BMP_temperature;BMP_pressure;BME280_temperature;BME280_humidity;BME280_pressure;Samples;Min_cycle;Max_cycle;Signal;HPM_P1;HPM_P2
2023/04/14 00:01:55;;;;;;;4.57;0.98;;;;;;;10.01;53.76;99105.56;4990856;28;20062;-82
2023/04/14 00:04:21;;;;;;;4.85;1.05;;;;;;;10.00;53.97;99107.38;4991245;28;20054;-82
2023/04/14 00:06:48;;;;;;;5.85;1.35;;;;;;;9.97;53.85;99106.72;4990213;28;20054;-82
2023/04/14 00:09:14;;;;;;;7.05;1.02;;;;;;;9.95;53.71;99104.22;4991032;28;20069;-82
2023/04/14 00:11:41;;;;;;;1.52;0.85;;;;;;;9.94;53.90;99110.38;4990844;28;20055;-82
2023/04/14 00:14:07;;;;;;;5.63;1.38;;;;;;;9.95;54.38;99109.47;4990743;28;20116;-82
2023/04/14 00:16:34;;;;;;;3.85;1.20;;;;;;;9.95;54.33;99114.72;4990021;28;20058;-83
2023/04/14 00:19:01;;;;;;;3.47;1.27;;;;;;;9.96;54.62;99116.41;4991007;28;20108;-83
2023/04/14 00:21:28;;;;;;;3.03;0.90;;;;;;;9.99;54.38;99125.88;4990644;28;20521;-83
2023/04/14 00:23:55;;;;;;;4.63;0.90;;;;;;;10.00;54.02;99128.41;4990660;28;20493;-83
2023/04/14 00:26:22;;;;;;;1.58;0.90;;;;;;;10.03;54.45;99122.94;4990098;28;20061;-83
2023/04/14 00:28:48;;;;;;;3.90;1.13;;;;;;;10.04;54.51;99119.38;4990283;28;20050;-83
2023/04/14 00:31:15;;;;;;;3.83;1.00;;;;;;;10.08;54.60;99127.91;4990925;28;20534;-83
2023/04/14 00:33:44;;;;;;;3.40;0.93;;;;;;;10.10;54.40;99135.69;4990561;28;20054;-82
2023/04/14 00:36:11;;;;;;;3.50;1.13;;;;;;;10.14;54.77;99140.63;4972883;28;20513;-83
2023/04/14 00:38:38;;;;;;;2.00;1.10;;;;;;;10.13;54.36;99136.31;4972969;28;20081;-83
2023/04/14 00:41:04;;;;;;;5.78;1.13;;;;;;;10.13;54.59;99140.75;4990915;28;20062;-83
2023/04/14 00:43:31;;;;;;;3.80;1.05;;;;;;;10.16;54.63;99143.16;4990278;28;20057;-82
2023/04/14 00:45:57;;;;;;;5.28;0.88;;;;;;;10.17;54.68;99143.06;4972724;28;20460;-83
2023/04/14 00:48:24;;;;;;;6.32;1.20;;;;;;;10.20;54.85;99144.66;4990052;28;20062;-82
2023/04/14 00:50:51;;;;;;;4.38;1.02;;;;;;;10.23;55.51;99144.47;4990527;28;20061;-82
2023/04/14 00:53:18;;;;;;;3.53;1.17;;;;;;;10.26;55.35;99149.53;4990333;28;20089;-82
2023/04/14 00:55:45;;;;;;;6.15;1.30;;;;;;;10.29;55.13;99144.06;4972568;28;20058;-83
2023/04/14 00:58:13;;;;;;;3.15;0.98;;;;;;;10.36;55.12;99154.19;4990125;28;20066;-82
2023/04/14 01:00:40;;;;;;;3.65;1.10;;;;;;;10.39;54.99;99157.44;4990279;28;20058;-82
2023/04/14 01:03:07;;;;;;;2.92;0.98;;;;;;;10.45;55.34;99163.28;4990451;28;20054;-82
2023/04/14 01:05:34;;;;;;;4.32;1.02;;;;;;;10.49;55.01;99165.63;4989545;28;20054;-82
2023/04/14 01:08:02;;;;;;;5.53;1.00;;;;;;;10.50;54.75;99164.66;4972364;28;20505;-82
2023/04/14 01:10:36;;;;;;;6.65;1.20;;;;;;;10.50;53.93;99167.28;4972884;28;20054;-82
2023/04/14 01:13:21;;;;;;;7.20;1.50;;;;;;;10.47;53.07;99158.78;4990203;28;20066;-82
2023/04/14 01:16:02;;;;;;;3.45;1.50;;;;;;;10.44;52.93;99159.81;4990055;28;20206;-82
2023/04/14 01:18:40;;;;;;;2.90;1.15;;;;;;;10.43;54.50;99150.19;4989623;28;20089;-82
2023/04/14 01:21:15;;;;;;;3.28;1.00;;;;;;;10.35;53.59;99149.88;4972503;28;20583;-82
2023/04/14 01:24:06;;;;;;;5.28;1.20;;;;;;;10.29;53.73;99146.69;4990011;28;20421;-82
2023/04/14 01:26:33;;;;;;;3.92;1.17;;;;;;;10.29;54.73;99145.84;4971784;28;20067;-82
2023/04/14 01:29:29;;;;;;;4.82;1.13;;;;;;;10.21;53.66;99140.25;4972657;28;20050;-82
2023/04/14 01:32:10;;;;;;;4.70;1.00;;;;;;;10.17;54.00;99145.69;4963937;28;20501;-82
2023/04/14 01:34:48;;;;;;;4.25;1.15;;;;;;;10.19;54.19;99144.75;4972553;28;20046;-82
2023/04/14 01:37:20;;;;;;;5.13;1.10;;;;;;;10.16;54.62;99149.28;4989560;28;20073;-82
2023/04/14 01:39:52;;;;;;;7.60;0.98;;;;;;;10.11;54.53;99146.13;4972703;28;20062;-82
2023/04/14 01:42:23;;;;;;;4.47;1.23;;;;;;;10.08;54.49;99146.31;4972630;28;20054;-82
2023/04/14 01:44:55;;;;;;;2.63;1.27;;;;;;;10.06;54.84;99128.94;4956248;28;20054;-83
2023/04/14 01:47:25;;;;;;;3.70;0.90;;;;;;;10.04;55.02;99131.66;4989601;28;20061;-83
2023/04/14 01:49:53;;;;;;;2.17;0.90;;;;;;;10.04;55.28;99136.94;4972712;28;20065;-83
2023/04/14 01:52:21;;;;;;;8.05;1.15;;;;;;;10.01;55.48;99132.72;4972250;28;20065;-82
2023/04/14 01:54:51;;;;;;;6.40;1.58;;;;;;;10.00;54.98;99143.31;4989359;28;20141;-82
2023/04/14 01:57:21;;;;;;;2.72;0.98;;;;;;;10.00;55.29;99141.56;4989614;28;20058;-82
2023/04/14 01:59:50;;;;;;;4.50;1.90;;;;;;;9.96;54.89;99142.69;4989705;28;20161;-83
2023/04/14 02:02:19;;;;;;;7.03;1.45;;;;;;;9.93;55.00;99137.63;4988472;28;20050;-83
2023/04/14 02:04:48;;;;;;;5.35;1.70;;;;;;;9.89;55.44;99139.63;4989432;28;20398;-83
2023/04/14 02:07:17;;;;;;;6.95;1.85;;;;;;;9.86;55.43;99139.81;4971772;28;20058;-82
2023/04/14 02:09:44;;;;;;;5.40;1.98;;;;;;;9.83;55.89;99139.16;4989692;28;20093;-83
2023/04/14 02:12:11;;;;;;;5.45;2.13;;;;;;;9.79;56.02;99133.25;4989667;28;20058;-83
2023/04/14 02:14:40;;;;;;;6.50;1.85;;;;;;;9.75;55.66;99137.88;4990071;28;20058;-83
2023/04/14 02:17:09;;;;;;;3.70;1.77;;;;;;;9.71;55.92;99125.84;4991568;28;20516;-82
2023/04/14 02:19:36;;;;;;;6.63;2.00;;;;;;;9.70;56.10;99132.06;4993062;28;20493;-82
2023/04/14 02:22:03;;;;;;;7.82;2.25;;;;;;;9.66;56.18;99135.81;4975860;28;20089;-82
2023/04/14 02:24:30;;;;;;;3.22;1.92;;;;;;;9.62;56.30;99136.97;4992627;28;20054;-82
2023/04/14 02:27:09;;;;;;;8.20;2.47;;;;;;;9.55;55.29;99136.50;4992482;28;20054;-82
2023/04/14 02:29:39;;;;;;;7.43;1.92;;;;;;;9.56;56.08;99139.94;4992921;28;20116;-82
2023/04/14 02:32:11;;;;;;;9.68;2.33;;;;;;;9.51;56.33;99141.13;4992821;28;20054;-83
2023/04/14 02:34:46;;;;;;;6.15;2.00;;;;;;;9.46;55.73;99137.91;4992563;28;20066;-83
2023/04/14 02:37:21;;;;;;;9.50;2.28;;;;;;;9.44;55.93;99142.44;4992408;28;20058;-83
2023/04/14 02:39:55;;;;;;;6.75;2.33;;;;;;;9.44;56.50;99134.53;4992661;28;20137;-83
2023/04/14 02:42:25;;;;;;;6.85;2.47;;;;;;;9.41;56.64;99134.72;4992559;28;20060;-83
2023/04/14 02:45:05;;;;;;;7.05;2.63;;;;;;;9.40;56.47;99138.31;4975231;28;20054;-83
2023/04/14 02:47:34;;;;;;;9.15;3.25;;;;;;;9.41;57.17;99136.53;4974939;28;20073;-82
2023/04/14 02:50:04;;;;;;;7.45;3.13;;;;;;;9.41;57.83;99142.59;4992470;28;20651;-83
2023/04/14 02:52:32;;;;;;;5.65;3.00;;;;;;;9.43;57.78;99142.50;4992517;28;20065;-83
2023/04/14 02:55:01;;;;;;;5.95;3.17;;;;;;;9.43;57.71;99145.16;4991733;28;20062;-82
2023/04/14 02:57:29;;;;;;;8.95;3.17;;;;;;;9.44;57.57;99147.69;4992265;28;20145;-82
2023/04/14 02:59:57;;;;;;;5.95;3.35;;;;;;;9.42;57.77;99146.09;4992220;28;20058;-83
2023/04/14 03:02:24;;;;;;;9.90;3.35;;;;;;;9.43;57.65;99155.66;4992224;28;20054;-82
2023/04/14 03:04:52;;;;;;;8.02;3.38;;;;;;;9.39;57.49;99155.00;4974159;28;20510;-83
2023/04/14 03:07:20;;;;;;;7.13;3.20;;;;;;;9.37;57.58;99160.34;4991821;28;20054;-83
2023/04/14 03:09:50;;;;;;;8.50;3.15;;;;;;;9.33;57.50;99160.63;4992277;28;20054;-83
2023/04/14 03:12:18;;;;;;;4.82;2.97;;;;;;;9.31;57.92;99159.88;4992213;28;20058;-83
2023/04/14 03:14:47;;;;;;;8.93;2.88;;;;;;;9.28;58.24;99166.19;4991732;28;20488;-83
2023/04/14 03:17:14;;;;;;;12.00;3.28;;;;;;;9.27;58.39;99159.22;4974195;28;20076;-83
2023/04/14 03:19:41;;;;;;;6.35;2.50;;;;;;;9.25;58.34;99167.22;4990609;28;20089;-82
2023/04/14 03:22:11;;;;;;;9.98;2.85;;;;;;;9.24;57.96;99165.50;4974480;28;20070;-82
2023/04/14 03:24:39;;;;;;;7.45;2.60;;;;;;;9.23;58.56;99155.94;4991633;28;20085;-82
2023/04/14 03:27:12;;;;;;;7.05;2.67;;;;;;;9.18;58.03;99152.75;4990452;28;20069;-83
2023/04/14 03:29:43;;;;;;;6.95;2.80;;;;;;;9.19;58.37;99164.94;4991656;28;20137;-83
2023/04/14 03:32:12;;;;;;;6.43;2.45;;;;;;;9.16;58.47;99162.50;4991730;28;20062;-83
2023/04/14 03:34:41;;;;;;;4.43;2.30;;;;;;;9.13;58.46;99162.69;4974461;28;20509;-83
2023/04/14 03:37:10;;;;;;;5.63;2.80;;;;;;;9.11;58.38;99172.44;4991130;28;20054;-83
2023/04/14 03:39:38;;;;;;;7.20;2.78;;;;;;;9.08;58.50;99172.66;4974348;28;20417;-83
2023/04/14 03:42:10;;;;;;;7.07;2.65;;;;;;;9.04;58.76;99164.09;4974183;28;20054;-83
2023/04/14 03:44:38;;;;;;;8.68;3.15;;;;;;;9.01;58.53;99166.06;4991399;28;20176;-82
2023/04/14 03:47:07;;;;;;;8.27;2.85;;;;;;;8.96;58.62;99167.19;4990649;28;20527;-82
2023/04/14 03:49:37;;;;;;;8.63;3.20;;;;;;;8.92;58.91;99172.69;4974445;28;20149;-83
2023/04/14 03:52:08;;;;;;;10.02;3.50;;;;;;;8.89;58.51;99170.28;4991411;28;20057;-83
2023/04/14 03:54:37;;;;;;;10.02;3.42;;;;;;;8.85;58.51;99164.34;4991380;28;20054;-83
2023/04/14 03:57:07;;;;;;;10.25;4.13;;;;;;;8.82;58.63;99173.25;4990763;28;20058;-83
2023/04/14 03:59:35;;;;;;;12.13;3.90;;;;;;;8.79;58.74;99169.97;4974018;28;20058;-83
2023/04/14 04:02:03;;;;;;;8.90;4.20;;;;;;;8.75;58.61;99171.09;4974193;28;20050;-82
2023/04/14 04:04:30;;;;;;;8.00;3.78;;;;;;;8.71;59.01;99170.44;4973843;28;20054;-82
2023/04/14 04:06:58;;;;;;;11.40;4.85;;;;;;;8.69;58.89;99174.91;4990420;28;20413;-83
2023/04/14 04:09:26;;;;;;;9.45;4.82;;;;;;;8.65;59.14;99178.66;4991388;28;20065;-83
2023/04/14 04:11:58;;;;;;;10.57;5.28;;;;;;;8.61;59.18;99178.00;4973615;28;20058;-83
2023/04/14 04:14:27;;;;;;;11.25;5.32;;;;;;;8.60;58.90;99184.19;4973584;28;20682;-83
2023/04/14 04:16:55;;;;;;;9.45;5.28;;;;;;;8.56;58.94;99183.50;4990229;28;20544;-82
2023/04/14 04:19:24;;;;;;;10.07;5.40;;;;;;;8.53;59.22;99178.44;4990974;28;20112;-83
2023/04/14 04:21:57;;;;;;;10.95;5.43;;;;;;;8.51;59.03;99182.03;4973640;28;20066;-83
2023/04/14 04:27:06;;;;;;;9.55;5.13;;;;;;;8.45;59.46;99180.63;4841119;23;20500;-79
2023/04/14 04:29:43;;;;;;;10.10;5.50;;;;;;;8.42;59.35;99188.66;4992361;28;20061;-78
2023/04/14 04:35:55;;;;;;;10.55;4.55;;;;;;;8.36;59.68;99187.22;4931547;29;20052;-78
2023/04/14 04:38:27;;;;;;;8.25;4.65;;;;;;;8.33;59.61;99193.50;4932013;29;20583;-78
2023/04/14 04:41:22;;;;;;;11.20;5.50;;;;;;;8.29;59.40;99191.97;4917388;29;20557;-79
2023/04/14 04:43:49;;;;;;;10.05;5.45;;;;;;;8.30;59.43;99185.78;4931713;29;20501;-78
2023/04/14 04:46:43;;;;;;;10.40;5.28;;;;;;;8.24;59.20;99193.16;4992344;28;20152;-79
2023/04/14 04:49:18;;;;;;;11.98;5.68;;;;;;;8.23;59.15;99192.34;4992213;28;20065;-80
2023/04/14 04:52:00;;;;;;;10.10;5.65;;;;;;;8.17;59.25;99190.03;4992708;28;20514;-79
2023/04/14 04:55:06;;;;;;;8.82;5.10;;;;;;;8.17;59.89;99190.91;4964618;28;20112;-80
2023/04/14 05:01:37;;;;;;;8.57;5.00;;;;;;;8.14;60.20;99198.06;4890125;29;20116;-79
2023/04/14 05:04:42;;;;;;;14.63;6.10;;;;;;;8.11;60.02;99188.59;4903319;29;20063;-79
2023/04/14 05:07:29;;;;;;;10.45;5.15;;;;;;;8.07;59.61;99187.94;4905524;29;20103;-79
2023/04/14 05:09:55;;;;;;;13.45;5.35;;;;;;;8.11;60.48;99193.03;4988385;28;20057;-79
2023/04/14 05:12:49;;;;;;;11.75;5.28;;;;;;;8.08;59.98;99196.66;4910629;29;20441;-79
2023/04/14 05:15:15;;;;;;;15.00;6.30;;;;;;;8.10;60.38;99186.09;4910459;29;20055;-77
2023/04/14 05:17:55;;;;;;;12.85;5.70;;;;;;;8.05;59.46;99194.22;4894044;29;20074;-78
2023/04/14 05:20:33;;;;;;;20.73;6.13;;;;;;;8.02;59.53;99200.47;4912640;29;20151;-78
2023/04/14 05:23:52;;;;;;;10.18;6.07;;;;;;;7.93;59.38;99196.56;4910701;29;20101;-78
2023/04/14 05:26:26;;;;;;;12.07;6.05;;;;;;;7.89;60.30;99205.53;4818236;29;20149;-78
2023/04/14 05:30:07;;;;;;;15.10;5.75;;;;;;;7.84;59.89;99210.19;4961882;28;20046;-78
2023/04/14 05:32:34;;;;;;;10.27;5.78;;;;;;;7.85;60.94;99204.00;4991251;28;20499;-78
2023/04/14 05:35:01;;;;;;;12.20;5.97;;;;;;;7.85;61.07;99208.41;4973763;28;20145;-78
2023/04/14 05:38:12;;;;;;;8.73;6.13;;;;;;;7.79;60.50;99205.22;4989533;28;20145;-78
2023/04/14 05:41:22;;;;;;;15.13;5.95;;;;;;;7.82;60.81;99206.81;4904077;29;20091;-78
2023/04/14 05:44:08;;;;;;;11.63;5.85;;;;;;;7.88;61.11;99208.22;4837017;29;20053;-78
2023/04/14 05:46:37;;;;;;;10.43;5.90;;;;;;;7.93;61.47;99212.28;4836842;29;20103;-77
2023/04/14 05:49:04;;;;;;;10.55;6.30;;;;;;;7.95;61.58;99209.59;4857710;29;20071;-78
2023/04/14 05:51:44;;;;;;;10.93;5.55;;;;;;;7.97;61.39;99205.13;4894982;29;20462;-78
2023/04/14 05:54:11;;;;;;;13.13;6.60;;;;;;;7.99;61.30;99212.91;4920542;28;20064;-77
2023/04/14 05:56:38;;;;;;;12.52;6.70;;;;;;;7.99;61.48;99210.28;4994610;28;20073;-78
2023/04/14 05:59:32;;;;;;;13.73;6.53;;;;;;;7.99;61.62;99212.91;4994899;28;20066;-78
2023/04/14 06:02:04;;;;;;;9.50;5.72;;;;;;;7.98;61.67;99213.81;4993390;28;20140;-78
2023/04/14 06:04:32;;;;;;;10.70;6.33;;;;;;;7.97;61.65;99213.00;4993950;28;20129;-78
2023/04/14 06:06:59;;;;;;;10.50;5.65;;;;;;;7.97;61.84;99214.75;4976433;28;20062;-78
2023/04/14 06:10:12;;;;;;;9.95;6.00;;;;;;;7.97;61.92;99220.00;4993719;28;20053;-78
2023/04/14 06:12:39;;;;;;;12.48;5.75;;;;;;;8.00;62.26;99211.97;4994873;28;20101;-77
2023/04/14 06:18:36;;;;;;;11.30;5.30;;;;;;;8.06;62.35;99220.34;4927910;29;20051;-77
2023/04/14 06:21:37;;;;;;;12.07;5.78;;;;;;;8.07;61.24;99215.94;4934026;29;20085;-78
2023/04/14 06:24:45;;;;;;;10.75;5.43;;;;;;;8.12;61.01;99218.31;4898433;29;20320;-78
2023/04/14 06:27:20;;;;;;;13.38;5.43;;;;;;;8.17;61.36;99217.13;4933332;29;20107;-78
2023/04/14 06:29:52;;;;;;;11.63;5.28;;;;;;;8.21;62.01;99223.03;4917987;29;20088;-77
2023/04/14 06:32:36;;;;;;;10.25;5.40;;;;;;;8.26;62.23;99222.78;4933858;29;20058;-78
2023/04/14 06:35:35;;;;;;;14.20;5.60;;;;;;;8.26;60.10;99230.66;4917167;29;20504;-78
2023/04/14 06:38:58;;;;;;;11.45;5.80;;;;;;;8.29;60.46;99223.44;4933214;29;20150;-78
2023/04/14 06:41:34;;;;;;;11.93;5.53;;;;;;;8.34;60.80;99226.66;4944316;28;20142;-78
2023/04/14 06:44:00;;;;;;;11.93;5.25;;;;;;;8.40;61.90;99221.97;4976510;28;20785;-78
2023/04/14 06:46:35;;;;;;;10.70;5.07;;;;;;;8.40;61.07;99225.47;4975687;28;20157;-77
2023/04/14 06:49:02;;;;;;;12.35;5.75;;;;;;;8.46;62.28;99222.47;4993794;28;20050;-78
2023/04/14 06:52:01;;;;;;;19.25;5.85;;;;;;;8.51;62.14;99224.84;4993970;28;20081;-78
2023/04/14 06:54:45;;;;;;;17.10;6.10;;;;;;;8.55;60.93;99220.28;4979490;28;20057;-79
2023/04/14 06:57:26;;;;;;;12.10;5.20;;;;;;;8.63;62.16;99228.56;4960518;28;20046;-78
2023/04/14 07:03:50;;;;;;;11.55;4.47;;;;;;;8.76;62.15;99212.13;4988822;28;20049;-78
2023/04/14 07:06:17;;;;;;;14.20;5.03;;;;;;;8.81;62.22;99213.56;4993807;28;20058;-78
2023/04/14 07:08:45;;;;;;;10.70;4.75;;;;;;;8.88;62.67;99214.03;4992670;28;20078;-78
2023/04/14 07:11:39;;;;;;;9.50;4.68;;;;;;;8.92;61.40;99212.91;4993450;28;20061;-78
2023/04/14 07:14:42;;;;;;;8.68;4.38;;;;;;;9.04;61.36;99221.03;4975483;28;20054;-79
2023/04/14 07:17:44;;;;;;;11.70;5.10;;;;;;;9.15;60.93;99213.31;4992937;28;20142;-79
2023/04/14 07:23:32;;;;;;;11.45;5.10;;;;;;;9.35;61.04;99216.56;4993315;28;20420;-79
2023/04/14 07:26:05;;;;;;;8.88;4.93;;;;;;;9.45;62.16;99216.81;4992527;28;20470;-79
2023/04/14 07:29:15;;;;;;;11.30;5.32;;;;;;;9.52;60.43;99221.63;4992708;28;20530;-78
2023/04/14 07:31:44;;;;;;;9.52;4.50;;;;;;;9.68;62.51;99214.56;4992633;28;20498;-79
2023/04/14 07:34:13;;;;;;;15.77;4.90;;;;;;;9.77;62.30;99214.81;4992561;28;20051;-78
2023/04/14 07:36:39;;;;;;;10.88;4.90;;;;;;;9.88;62.27;99221.22;4992310;28;20065;-79
2023/04/14 07:39:06;;;;;;;17.65;5.40;;;;;;;9.97;61.82;99218.00;4992528;28;20503;-78
2023/04/14 07:41:44;;;;;;;11.05;4.88;;;;;;;10.04;60.34;99221.94;4992729;28;20054;-79
2023/04/14 07:44:11;;;;;;;11.98;5.25;;;;;;;10.18;61.33;99225.47;4975341;28;20066;-79
2023/04/14 07:46:40;;;;;;;8.38;4.35;;;;;;;10.25;60.56;99223.28;4991748;28;20141;-78
2023/04/14 07:49:10;;;;;;;9.98;4.78;;;;;;;10.34;60.77;99234.97;4992369;28;20054;-79
2023/04/14 07:51:56;;;;;;;13.57;4.18;;;;;;;10.40;59.72;99235.44;4992531;28;20076;-79
2023/04/14 07:54:26;;;;;;;9.38;4.72;;;;;;;10.53;60.39;99232.03;4992524;28;20055;-78
2023/04/14 07:56:53;;;;;;;14.02;5.20;;;;;;;10.63;61.25;99238.41;4991443;28;20054;-79
2023/04/14 07:59:19;;;;;;;10.00;4.72;;;;;;;10.72;61.28;99233.47;4992214;28;20062;-78
2023/04/14 08:01:47;;;;;;;10.27;4.18;;;;;;;10.80;61.21;99232.00;4992013;28;20054;-78
2023/04/14 08:04:23;;;;;;;8.50;4.30;;;;;;;10.88;60.00;99238.56;4975081;28;20099;-79
2023/04/14 08:06:50;;;;;;;9.65;5.18;;;;;;;11.02;61.19;99234.97;4974503;28;20054;-79
2023/04/14 08:09:32;;;;;;;13.40;4.47;;;;;;;11.08;59.02;99239.84;4990951;28;20058;-78
2023/04/14 08:12:17;;;;;;;9.60;3.92;;;;;;;11.23;61.02;99240.59;4992131;28;20174;-79
2023/04/14 08:14:57;;;;;;;9.00;3.42;;;;;;;11.32;60.03;99236.47;4970491;28;20062;-78
2023/04/14 08:17:24;;;;;;;9.57;4.00;;;;;;;11.47;61.25;99239.84;4974322;28;20062;-78
2023/04/14 08:19:51;;;;;;;8.98;4.03;;;;;;;11.58;61.35;99242.59;4991865;28;20058;-78
2023/04/14 08:22:18;;;;;;;10.38;4.43;;;;;;;11.72;61.49;99238.16;4991569;28;20062;-79
2023/04/14 08:24:44;;;;;;;8.65;4.07;;;;;;;11.86;61.40;99238.00;4991641;28;20058;-78
2023/04/14 08:27:11;;;;;;;11.85;4.22;;;;;;;12.02;61.00;99236.94;4991099;28;20542;-79
2023/04/14 08:29:37;;;;;;;14.20;3.60;;;;;;;12.19;60.68;99233.09;4991851;28;20053;-79
2023/04/14 08:32:04;;;;;;;13.52;3.85;;;;;;;12.34;60.53;99233.78;4990452;28;20141;-79
2023/04/14 08:34:31;;;;;;;9.82;3.30;;;;;;;12.51;60.48;99229.06;4991394;28;20458;-79
2023/04/14 08:36:59;;;;;;;7.70;3.35;;;;;;;12.69;60.43;99226.88;4990838;28;20056;-79
2023/04/14 08:39:25;;;;;;;12.40;3.50;;;;;;;12.87;60.02;99229.09;4991778;28;20092;-79
2023/04/14 08:41:54;;;;;;;11.02;3.60;;;;;;;13.05;59.53;99237.44;4991420;28;20058;-79
2023/04/14 08:44:21;;;;;;;6.80;3.10;;;;;;;13.23;59.11;99237.81;4991771;28;20060;-80
2023/04/14 08:46:54;;;;;;;8.77;4.15;;;;;;;13.38;57.25;99233.13;4990499;28;20475;-80
2023/04/14 08:49:44;;;;;;;21.67;9.52;;;;;;;13.51;54.78;99233.06;4991412;28;20550;-79
2023/04/14 08:52:11;;;;;;;7.88;4.28;;;;;;;13.68;57.53;99228.25;4975357;28;20047;-79
2023/04/14 08:54:39;;;;;;;7.82;3.15;;;;;;;13.79;57.10;99227.41;4990011;28;20061;-80
2023/04/14 08:57:17;;;;;;;11.07;4.03;;;;;;;13.87;55.21;99229.44;4989300;28;20058;-80
2023/04/14 08:59:44;;;;;;;8.73;3.40;;;;;;;13.98;57.28;99220.66;4991450;28;20088;-79
2023/04/14 09:02:12;;;;;;;9.98;3.83;;;;;;;14.06;56.71;99223.53;4991469;28;20141;-80
2023/04/14 09:04:42;;;;;;;9.00;3.33;;;;;;;14.15;55.75;99229.88;4991487;28;20138;-80
2023/04/14 09:07:11;;;;;;;29.52;8.15;;;;;;;14.23;54.83;99223.94;4990508;28;20463;-80
2023/04/14 09:09:37;;;;;;;10.50;3.90;;;;;;;14.28;54.69;99229.75;4990852;28;20052;-80
2023/04/14 09:12:04;;;;;;;9.82;3.47;;;;;;;14.28;54.42;99225.25;4990902;28;20137;-79
2023/04/14 09:14:32;;;;;;;7.75;3.17;;;;;;;14.29;54.51;99232.28;4990898;28;20090;-80
2023/04/14 09:16:59;;;;;;;12.10;3.83;;;;;;;14.31;54.45;99218.88;4990681;28;20146;-79
2023/04/14 09:19:26;;;;;;;8.07;3.03;;;;;;;14.31;54.46;99224.16;4991328;28;20120;-79
2023/04/14 09:21:54;;;;;;;14.57;3.88;;;;;;;14.34;54.77;99229.22;4991298;28;20050;-79
2023/04/14 09:24:28;;;;;;;7.43;3.35;;;;;;;14.39;54.73;99224.38;4973971;28;20069;-79
2023/04/14 09:26:57;;;;;;;9.98;3.33;;;;;;;14.46;54.81;99227.38;4994102;28;20059;-80
2023/04/14 09:29:25;;;;;;;8.40;3.58;;;;;;;14.52;54.29;99231.34;4977349;28;20058;-80
2023/04/14 09:31:52;;;;;;;6.75;3.00;;;;;;;14.61;54.27;99219.16;4995182;28;20058;-80
2023/04/14 09:34:20;;;;;;;5.75;2.47;;;;;;;14.67;54.15;99230.09;4995008;28;20054;-80
2023/04/14 09:37:09;;;;;;;12.30;3.25;;;;;;;14.72;51.42;99227.88;4994179;28;20132;-80
2023/04/14 09:39:53;;;;;;;7.57;2.85;;;;;;;14.84;52.03;99225.22;4995156;28;20073;-80
2023/04/14 09:42:35;;;;;;;;;;;;;;;14.96;53.50;99228.66;4995663;28;20074;-81
2023/04/14 09:45:03;;;;;;;7.60;2.90;;;;;;;15.13;54.92;99229.03;4994383;28;20143;-80
2023/04/14 09:47:31;;;;;;;7.50;2.85;;;;;;;15.20;53.91;99225.72;4994201;28;20081;-80
2023/04/14 09:49:59;;;;;;;8.18;3.28;;;;;;;15.27;53.62;99223.38;4994854;28;20073;-80
2023/04/14 09:52:40;;;;;;;8.73;2.58;;;;;;;15.35;52.05;99214.75;4994965;28;20061;-80
2023/04/14 09:55:09;;;;;;;8.82;2.58;;;;;;;15.46;52.92;99205.88;4994291;28;20054;-80
2023/04/14 09:57:37;;;;;;;6.85;2.90;;;;;;;15.58;53.11;99209.28;4976992;28;20086;-78
2023/04/14 10:00:24;;;;;;;11.38;3.15;;;;;;;15.64;50.66;99216.72;4994455;28;20121;-78
2023/04/14 10:02:57;;;;;;;9.40;2.55;;;;;;;15.76;52.63;99210.34;4994729;28;20085;-78
2023/04/14 10:05:28;;;;;;;8.63;2.53;;;;;;;15.83;51.39;99210.66;4976730;28;20054;-78
2023/04/14 10:08:02;;;;;;;10.73;3.35;;;;;;;15.92;51.81;99208.97;4994151;28;20061;-78
2023/04/14 10:10:29;;;;;;;6.55;2.58;;;;;;;16.03;53.30;99205.41;4994301;28;20062;-78
2023/04/14 10:12:55;;;;;;;7.55;3.10;;;;;;;16.13;52.49;99210.72;4994330;28;20054;-78
2023/04/14 10:15:22;;;;;;;8.95;3.13;;;;;;;16.22;51.83;99209.91;4993865;28;20069;-78
2023/04/14 10:17:49;;;;;;;10.73;2.95;;;;;;;16.29;51.42;99199.56;4994069;28;20085;-78
2023/04/14 10:20:16;;;;;;;9.57;3.40;;;;;;;16.36;51.82;99205.16;4994291;28;20117;-78
2023/04/14 10:22:43;;;;;;;12.05;3.20;;;;;;;16.41;50.39;99201.13;4993938;28;20054;-78
2023/04/14 10:25:12;;;;;;;8.27;2.90;;;;;;;16.48;50.78;99197.91;4993494;28;20062;-78
2023/04/14 10:27:39;;;;;;;9.45;3.00;;;;;;;16.52;50.89;99200.13;4846526;23;20353;-79
2023/04/14 10:30:07;;;;;;;10.85;3.00;;;;;;;16.59;50.74;99191.63;4992605;28;20060;-79
2023/04/14 10:32:36;;;;;;;9.40;3.38;;;;;;;16.64;50.44;99197.34;4991657;28;20054;-79
2023/04/14 10:35:04;;;;;;;9.15;3.50;;;;;;;16.71;49.93;99192.31;4975124;28;20108;-80
2023/04/14 10:37:31;;;;;;;13.02;2.95;;;;;;;16.79;50.91;99195.09;4991664;28;20062;-79
2023/04/14 10:39:59;;;;;;;10.25;2.95;;;;;;;16.89;51.25;99184.44;4992943;28;20058;-80
2023/04/14 10:42:27;;;;;;;9.65;3.13;;;;;;;17.00;51.35;99181.63;4992764;28;20097;-80
2023/04/14 10:45:07;;;;;;;7.85;2.88;;;;;;;17.11;47.38;99182.44;4975179;28;20089;-79
2023/04/14 10:47:34;;;;;;;9.48;3.13;;;;;;;17.29;49.77;99178.06;4992673;28;20085;-80
2023/04/14 10:50:12;;;;;;;11.05;3.53;;;;;;;17.37;46.98;99181.81;4992602;28;20058;-80
2023/04/14 10:52:54;;;;;;;10.50;3.45;;;;;;;17.46;46.72;99175.63;4991333;28;20082;-80
2023/04/14 10:55:26;;;;;;;10.98;3.60;;;;;;;17.56;47.13;99187.06;4992356;28;20077;-80
2023/04/14 10:58:04;;;;;;;15.73;4.28;;;;;;;17.66;46.55;99178.19;4991981;28;20082;-80
2023/04/14 11:00:36;;;;;;;9.75;3.72;;;;;;;17.79;49.33;99178.69;4992505;28;20062;-80
2023/04/14 11:03:06;;;;;;;7.82;2.78;;;;;;;17.88;49.51;99171.63;4992443;28;20492;-80
2023/04/14 11:05:34;;;;;;;8.68;3.28;;;;;;;17.98;50.17;99161.75;4991949;28;20448;-80
2023/04/14 11:08:11;;;;;;;8.30;3.53;;;;;;;18.21;47.74;99165.84;4991910;28;20158;-80
2023/04/14 11:10:38;;;;;;;8.40;3.95;;;;;;;18.62;52.24;99154.69;4992574;28;20082;-80
2023/04/14 11:13:09;;;;;;;12.00;3.33;;;;;;;19.15;52.00;99157.41;4992287;28;20058;-80
2023/04/14 11:15:56;;;;;;;12.27;3.67;;;;;;;19.62;47.08;99158.78;4991930;28;20082;-81
2023/04/14 11:18:28;;;;;;;8.60;3.03;;;;;;;20.05;46.76;99149.91;4992048;28;20832;-80
2023/04/14 11:21:05;;;;;;;7.72;3.13;;;;;;;20.50;47.78;99149.59;4992216;28;20065;-81
2023/04/14 11:23:33;;;;;;;9.18;3.10;;;;;;;21.09;51.04;99146.72;4992048;28;20109;-80
2023/04/14 11:26:00;;;;;;;8.57;2.78;;;;;;;21.73;50.30;99145.00;4991645;28;20069;-80
2023/04/14 11:28:27;;;;;;;7.95;3.70;;;;;;;22.37;47.49;99147.59;4991644;28;20117;-81
2023/04/14 11:30:57;;;;;;;11.38;3.65;;;;;;;22.95;43.70;99154.31;4992124;28;20464;-81
2023/04/14 11:33:36;;;;;;;7.50;2.75;;;;;;;23.45;43.12;99149.25;4974729;28;20062;-81
2023/04/14 11:36:05;;;;;;;9.20;3.42;;;;;;;23.88;41.11;99145.84;4991436;28;20055;-81
2023/04/14 11:38:39;;;;;;;8.57;3.08;;;;;;;24.23;41.96;99139.81;4991786;28;20054;-80
2023/04/14 11:41:06;;;;;;;6.75;3.15;;;;;;;24.52;41.36;99139.84;4974400;28;20471;-81
2023/04/14 11:43:32;;;;;;;10.82;3.65;;;;;;;24.82;43.00;99140.47;4991850;28;20074;-81
2023/04/14 11:46:01;;;;;;;8.82;3.33;;;;;;;25.16;42.71;99138.06;4973693;28;20529;-81
2023/04/14 11:48:29;;;;;;;7.20;3.00;;;;;;;25.55;41.69;99124.13;4989173;28;20054;-81
2023/04/14 11:51:01;;;;;;;12.95;3.58;;;;;;;25.93;41.79;99125.53;4991311;28;20054;-81
2023/04/14 11:53:28;;;;;;;12.33;3.40;;;;;;;26.28;40.65;99123.50;4973871;28;20058;-81
2023/04/14 11:55:56;;;;;;;8.00;3.30;;;;;;;26.45;38.38;99130.34;4991148;28;20112;-80
2023/04/14 11:58:24;;;;;;;7.72;2.60;;;;;;;26.33;36.61;99122.91;4991169;28;20058;-80
2023/04/14 12:00:52;;;;;;;8.43;2.72;;;;;;;26.01;36.21;99126.16;4991531;28;20054;-80
2023/04/14 12:03:26;;;;;;;8.60;2.70;;;;;;;25.55;34.70;99132.19;4974456;28;20489;-80
2023/04/14 12:06:00;;;;;;;5.20;2.53;;;;;;;25.02;34.96;99128.22;4990687;28;20054;-80
2023/04/14 12:08:28;;;;;;;7.85;2.83;;;;;;;24.50;36.38;99123.91;4973352;28;20054;-80
2023/04/14 12:10:56;;;;;;;8.15;3.67;;;;;;;24.04;37.97;99125.94;4991101;28;20497;-80
2023/04/14 12:13:23;;;;;;;6.05;2.97;;;;;;;23.74;39.38;99122.53;4991151;28;20101;-80
2023/04/14 12:15:50;;;;;;;7.13;3.50;;;;;;;23.63;41.44;99124.66;4990630;28;20059;-80
2023/04/14 12:18:16;;;;;;;11.25;3.72;;;;;;;23.71;42.24;99115.69;4990525;28;20472;-80
2023/04/14 12:20:45;;;;;;;9.30;3.53;;;;;;;23.93;42.45;99118.41;4991408;28;20137;-80
2023/04/14 12:23:11;;;;;;;10.63;3.92;;;;;;;24.25;43.02;99116.25;4991337;28;20093;-80